Time;durP1;ratioP1;P1;durP2;ratioP2;P2;SDS_P1;SDS_P2;PMS_P1;PMS_P2;Temp;Humidity;BMP_temperature;BMP_pressure;BME280_temperature;BME280_humidity;BME280_pressure;Samples;Min_cycle;Max_cycle;Signal;HPM_P1;HPM_P2
2024/03/18 00:02:05;;;;;;;1.02;0.43;;;10.80;1.00;;;;;;4965203;28;20057;-74
2024/03/18 00:04:31;;;;;;;0.40;0.32;;;10.80;1.00;;;;;;4948911;28;20073;-75
2024/03/18 00:06:57;;;;;;;1.30;0.60;;;10.70;27.10;;;;;;4964474;28;20062;-75
2024/03/18 00:09:23;;;;;;;0.47;0.30;;;10.60;49.20;;;;;;4947924;28;20398;-75
2024/03/18 00:11:49;;;;;;;0.60;0.43;;;10.60;59.30;;;;;;4948904;28;20046;-74
2024/03/18 00:14:15;;;;;;;0.85;0.55;;;10.60;99.90;;;;;;4932584;28;20057;-74
2024/03/18 00:16:40;;;;;;;1.35;0.60;;;10.50;99.90;;;;;;4948565;28;20143;-75
2024/03/18 00:19:06;;;;;;;0.50;0.50;;;10.50;99.90;;;;;;4948567;28;20054;-74
2024/03/18 00:21:32;;;;;;;0.63;0.30;;;10.50;99.90;;;;;;4949020;28;20055;-74
2024/03/18 00:23:58;;;;;;;0.73;0.47;;;10.40;99.90;;;;;;4976002;28;20112;-74
2024/03/18 00:26:24;;;;;;;0.60;0.35;;;10.40;1.00;;;;;;4964368;28;20082;-75
2024/03/18 00:28:51;;;;;;;0.38;0.38;;;10.40;1.00;;;;;;4948700;28;20080;-75
2024/03/18 00:31:16;;;;;;;0.88;0.40;;;10.40;66.90;;;;;;4948246;28;20205;-75
2024/03/18 00:33:42;;;;;;;0.43;0.22;;;10.40;24.00;;;;;;4963894;28;20058;-75
2024/03/18 00:36:08;;;;;;;0.98;0.40;;;10.40;99.90;;;;;;4947453;28;20058;-75
2024/03/18 00:38:34;;;;;;;0.65;0.32;;;10.40;99.90;;;;;;4980581;28;20073;-75
2024/03/18 00:43:45;;;;;;;0.60;0.35;;;10.50;99.90;;;;;;4980806;28;20058;-74
2024/03/18 00:46:11;;;;;;;0.43;0.35;;;10.50;99.90;;;;;;4964223;28;20137;-75
2024/03/18 00:48:37;;;;;;;0.30;0.30;;;10.50;99.90;;;;;;4980075;28;20815;-74
2024/03/18 00:51:03;;;;;;;0.45;0.40;;;10.50;99.90;;;;;;4979709;28;20061;-75
2024/03/18 00:53:29;;;;;;;0.85;0.47;;;10.50;99.90;;;;;;4979339;28;20061;-74
2024/03/18 00:55:55;;;;;;;1.40;0.65;;;10.50;99.90;;;;;;4979885;28;20051;-74
2024/03/18 00:58:21;;;;;;;0.57;0.30;;;10.50;99.90;;;;;;4980386;28;20069;-74
2024/03/18 01:00:47;;;;;;;0.77;0.50;;;10.60;99.90;;;;;;4964465;28;20705;-74
2024/03/18 01:03:13;;;;;;;1.45;0.50;;;10.60;99.90;;;;;;4979568;28;20053;-75
2024/03/18 01:05:39;;;;;;;0.60;0.50;;;10.60;99.90;;;;;;4948043;28;20078;-74
2024/03/18 01:08:06;;;;;;;0.40;0.35;;;10.60;99.90;;;;;;4963155;28;20158;-75
2024/03/18 01:10:33;;;;;;;0.85;0.50;;;10.60;99.90;;;;;;4963955;28;20050;-75
2024/03/18 01:13:00;;;;;;;0.40;0.40;;;10.60;99.90;;;;;;4963795;28;20073;-75
2024/03/18 01:15:25;;;;;;;1.30;0.50;;;10.60;99.90;;;;;;4963929;28;20046;-75
2024/03/18 01:17:51;;;;;;;0.57;0.35;;;10.60;99.90;;;;;;4963054;28;20173;-75
2024/03/18 01:20:19;;;;;;;0.80;0.60;;;10.50;99.90;;;;;;4948211;28;20496;-75
2024/03/18 01:22:45;;;;;;;0.38;0.32;;;10.50;99.90;;;;;;4947159;28;20089;-75
2024/03/18 01:25:14;;;;;;;0.63;0.60;;;10.60;99.90;;;;;;4947391;28;20666;-75
2024/03/18 01:27:40;;;;;;;1.23;0.45;;;10.50;99.90;;;;;;4932048;28;20058;-74
2024/03/18 01:30:15;;;;;;;1.55;0.73;;;10.50;99.90;;;;;;4964002;28;20050;-75
2024/03/18 01:32:41;;;;;;;0.50;0.47;;;10.50;99.90;;;;;;4931419;28;20387;-75
2024/03/18 01:35:07;;;;;;;1.05;0.57;;;10.50;99.90;;;;;;4963669;28;20054;-75
2024/03/18 01:37:35;;;;;;;1.05;0.57;;;10.50;99.90;;;;;;4962927;28;20514;-74
2024/03/18 01:40:01;;;;;;;0.50;0.50;;;10.50;99.90;;;;;;4946936;28;20066;-74
2024/03/18 01:42:27;;;;;;;0.45;0.20;;;10.50;99.90;;;;;;4947827;28;20050;-74
2024/03/18 01:44:54;;;;;;;0.63;0.45;;;10.50;99.90;;;;;;4947611;28;20089;-74
2024/03/18 01:47:20;;;;;;;0.47;0.47;;;10.50;99.90;;;;;;4949150;28;20081;-75
2024/03/18 01:49:47;;;;;;;0.35;0.35;;;10.50;99.90;;;;;;4966684;28;20051;-75
2024/03/18 01:52:13;;;;;;;1.02;0.50;;;10.50;99.90;;;;;;4935056;28;20058;-75
2024/03/18 01:54:39;;;;;;;0.90;0.50;;;10.50;1.00;;;;;;4966479;28;20553;-75
2024/03/18 01:57:05;;;;;;;0.65;0.50;;;10.50;1.00;;;;;;4983764;28;20054;-74
2024/03/18 01:59:31;;;;;;;0.57;0.50;;;10.50;1.00;;;;;;4935525;28;20469;-74
2024/03/18 02:01:57;;;;;;;2.33;0.60;;;10.50;1.00;;;;;;4951195;28;20059;-74
2024/03/18 02:04:23;;;;;;;1.00;0.90;;;10.50;1.00;;;;;;4966693;28;20054;-75
2024/03/18 02:06:48;;;;;;;0.85;0.65;;;10.50;1.00;;;;;;4982735;28;20078;-75
2024/03/18 02:09:17;;;;;;;0.73;0.60;;;10.50;1.00;;;;;;4950283;28;20058;-75
2024/03/18 02:11:44;;;;;;;0.60;0.50;;;10.50;99.90;;;;;;4983340;28;20415;-75
2024/03/18 02:14:13;;;;;;;0.82;0.60;;;10.50;99.90;;;;;;4950959;28;20096;-74
2024/03/18 02:16:39;;;;;;;0.77;0.55;;;10.50;99.90;;;;;;4945863;28;20057;-75
2024/03/18 02:19:05;;;;;;;0.65;0.47;;;10.40;1.00;;;;;;4970235;28;20076;-74
2024/03/18 02:21:31;;;;;;;1.00;0.50;;;10.40;99.90;;;;;;4969581;28;20482;-75
2024/03/18 02:23:57;;;;;;;0.50;0.50;;;10.30;99.90;;;;;;5001629;28;20065;-75
2024/03/18 02:26:23;;;;;;;1.33;0.70;;;10.20;99.90;;;;;;4985747;28;20107;-75
2024/03/18 02:28:50;;;;;;;0.93;0.50;;;10.10;99.90;;;;;;5002277;28;20054;-75
2024/03/18 02:31:15;;;;;;;1.55;0.70;;;10.10;99.90;;;;;;4966738;28;20131;-74
2024/03/18 02:33:42;;;;;;;1.05;0.70;;;10.00;99.90;;;;;;4954635;28;20136;-74
2024/03/18 02:36:08;;;;;;;0.63;0.57;;;9.90;1.00;;;;;;4957374;28;20429;-75
2024/03/18 02:38:34;;;;;;;0.45;0.32;;;9.90;1.00;;;;;;4971015;28;20051;-75
2024/03/18 02:41:00;;;;;;;0.55;0.50;;;9.80;1.00;;;;;;4956829;28;20158;-75
2024/03/18 02:43:26;;;;;;;1.45;1.00;;;9.80;50.70;;;;;;4962422;28;20045;-75
2024/03/18 02:45:52;;;;;;;0.43;0.38;;;9.80;99.90;;;;;;4969336;28;20047;-75
2024/03/18 02:48:23;;;;;;;0.70;0.60;;;9.70;99.90;;;;;;4971298;28;20054;-75
2024/03/18 02:50:49;;;;;;;1.52;0.88;;;9.70;99.90;;;;;;4984816;28;20109;-75
2024/03/18 02:53:18;;;;;;;0.55;0.55;;;9.70;1.00;;;;;;4966774;28;20157;-75
2024/03/18 02:55:44;;;;;;;0.75;0.60;;;9.60;1.00;;;;;;4975920;28;20171;-75
2024/03/18 02:58:10;;;;;;;1.33;0.93;;;9.60;1.00;;;;;;4970913;28;20054;-74
2024/03/18 03:00:36;;;;;;;0.95;0.68;;;9.50;1.00;;;;;;4963184;28;20054;-74
2024/03/18 03:03:02;;;;;;;1.35;0.70;;;9.50;99.90;;;;;;4952231;28;20054;-75
2024/03/18 03:05:28;;;;;;;1.27;0.70;;;9.50;99.90;;;;;;4986018;28;20062;-75
2024/03/18 03:07:54;;;;;;;1.98;0.90;;;9.50;1.00;;;;;;4988073;28;20403;-75
2024/03/18 03:10:19;;;;;;;0.75;0.55;;;9.60;99.90;;;;;;4968886;28;20096;-75
2024/03/18 03:12:46;;;;;;;1.55;0.90;;;9.60;99.90;;;;;;4986973;28;20074;-75
2024/03/18 03:15:11;;;;;;;0.63;0.60;;;9.70;99.90;;;;;;4973174;28;20077;-75
2024/03/18 03:17:37;;;;;;;1.80;1.30;;;9.80;1.00;;;;;;4971034;28;20061;-75
2024/03/18 03:20:08;;;;;;;1.00;0.70;;;9.80;1.00;;;;;;4952440;28;20509;-75
2024/03/18 03:22:35;;;;;;;1.10;0.68;;;9.90;1.00;;;;;;4969718;28;20473;-75
2024/03/18 03:25:02;;;;;;;0.65;0.50;;;9.90;1.00;;;;;;4975125;28;20046;-74
2024/03/18 03:27:29;;;;;;;1.52;0.80;;;10.00;99.90;;;;;;4967405;28;20156;-75
2024/03/18 03:29:55;;;;;;;1.40;0.60;;;10.00;99.90;;;;;;4971089;28;20057;-75
2024/03/18 03:32:22;;;;;;;0.60;0.50;;;10.10;99.90;;;;;;4967296;28;20085;-75
2024/03/18 03:34:48;;;;;;;1.48;0.80;;;10.10;99.90;;;;;;4942554;28;20485;-75
2024/03/18 03:37:13;;;;;;;2.20;0.70;;;10.20;99.90;;;;;;4983194;28;20160;-75
2024/03/18 03:39:39;;;;;;;1.00;0.80;;;10.20;99.90;;;;;;4960076;28;20068;-74
2024/03/18 03:42:06;;;;;;;0.75;0.50;;;10.20;99.90;;;;;;4954619;28;20197;-75
2024/03/18 03:44:32;;;;;;;0.43;0.43;;;10.20;99.90;;;;;;4980393;28;20434;-75
2024/03/18 03:46:58;;;;;;;0.80;0.57;;;10.20;1.00;;;;;;4968188;28;20496;-75
2024/03/18 03:49:25;;;;;;;1.38;0.50;;;10.20;1.00;;;;;;4969264;28;20050;-74
2024/03/18 03:51:51;;;;;;;0.70;0.60;;;10.20;99.90;;;;;;4939251;28;20819;-74
2024/03/18 03:54:18;;;;;;;0.70;0.50;;;10.20;99.90;;;;;;4981777;28;20062;-74
2024/03/18 03:56:44;;;;;;;0.55;0.32;;;10.20;99.90;;;;;;4972110;28;20433;-75
2024/03/18 03:59:10;;;;;;;0.52;0.32;;;10.20;87.90;;;;;;4965918;28;20053;-74
2024/03/18 04:01:36;;;;;;;0.57;0.40;;;10.20;1.00;;;;;;4975097;28;20050;-75
2024/03/18 04:04:01;;;;;;;1.10;0.57;;;10.30;99.90;;;;;;4969114;28;21060;-74
2024/03/18 04:06:27;;;;;;;1.35;0.50;;;10.20;99.90;;;;;;4967921;28;20085;-75
2024/03/18 04:08:53;;;;;;;0.73;0.52;;;10.20;99.90;;;;;;4951932;28;20069;-75
2024/03/18 04:11:19;;;;;;;0.47;0.30;;;10.10;99.90;;;;;;4952924;28;20109;-74
2024/03/18 04:13:45;;;;;;;0.35;0.30;;;10.10;99.90;;;;;;4956346;28;20129;-75
2024/03/18 04:16:11;;;;;;;0.30;0.30;;;10.10;99.90;;;;;;4966030;28;20486;-74
2024/03/18 04:18:38;;;;;;;0.43;0.40;;;10.10;99.90;;;;;;4967115;28;20371;-75
2024/03/18 04:21:04;;;;;;;0.90;0.40;;;10.10;99.90;;;;;;4984391;28;20046;-74
2024/03/18 04:23:32;;;;;;;0.57;0.43;;;10.10;99.90;;;;;;4954270;28;20537;-75
2024/03/18 04:26:06;;;;;;;0.45;0.30;;;10.20;99.90;;;;;;4968157;28;20073;-75
2024/03/18 04:28:35;;;;;;;0.35;0.20;;;10.20;99.90;;;;;;4977666;28;20054;-75
2024/03/18 04:31:07;;;;;;;0.20;0.20;;;10.20;99.90;;;;;;4960338;28;20054;-75
2024/03/18 04:33:36;;;;;;;0.30;0.30;;;10.20;99.90;;;;;;4953525;28;20200;-75
2024/03/18 04:36:02;;;;;;;0.60;0.40;;;10.20;99.90;;;;;;4960705;28;20360;-75
2024/03/18 04:38:28;;;;;;;0.25;0.25;;;10.20;88.10;;;;;;4964936;28;20061;-75
2024/03/18 04:40:54;;;;;;;0.73;0.30;;;10.10;99.90;;;;;;4980161;28;20046;-75
2024/03/18 04:43:20;;;;;;;0.30;0.30;;;10.10;84.00;;;;;;4966654;28;20068;-75
2024/03/18 04:45:46;;;;;;;0.63;0.43;;;10.10;99.10;;;;;;4985494;28;20101;-75
2024/03/18 04:48:12;;;;;;;1.20;0.45;;;10.00;99.90;;;;;;4967488;28;20060;-75
2024/03/18 04:50:38;;;;;;;0.73;0.40;;;10.00;99.90;;;;;;4951430;28;20550;-75
2024/03/18 04:53:04;;;;;;;0.95;0.70;;;9.90;19.30;;;;;;4988675;28;20092;-75
2024/03/18 04:55:30;;;;;;;0.80;0.50;;;9.80;99.90;;;;;;4990287;28;20061;-75
2024/03/18 04:57:58;;;;;;;0.50;0.32;;;9.80;99.90;;;;;;4960440;28;20053;-74
2024/03/18 05:00:24;;;;;;;0.93;0.30;;;9.80;99.90;;;;;;4952020;28;20081;-75
2024/03/18 05:02:51;;;;;;;0.63;0.25;;;9.70;99.90;;;;;;4950963;28;20054;-75
2024/03/18 05:05:17;;;;;;;0.63;0.40;;;9.60;99.90;;;;;;4957885;28;20057;-75
2024/03/18 05:07:43;;;;;;;0.63;0.40;;;9.50;99.90;;;;;;4967060;28;20065;-75
2024/03/18 05:10:10;;;;;;;0.22;0.20;;;9.50;99.90;;;;;;4955670;28;20046;-74
2024/03/18 05:12:36;;;;;;;1.00;0.32;;;9.40;1.00;;;;;;4967953;28;20053;-74
2024/03/18 05:15:03;;;;;;;0.40;0.40;;;9.40;1.00;;;;;;4966849;28;20046;-75
2024/03/18 05:17:28;;;;;;;0.73;0.30;;;9.30;1.00;;;;;;4967107;28;20054;-74
2024/03/18 05:19:55;;;;;;;0.60;0.55;;;9.20;64.50;;;;;;4981095;28;20057;-75
2024/03/18 05:22:21;;;;;;;0.30;0.30;;;9.20;99.90;;;;;;4968184;28;20502;-75
2024/03/18 05:24:47;;;;;;;0.57;0.45;;;9.10;99.90;;;;;;4970129;28;20425;-75
2024/03/18 05:27:14;;;;;;;0.57;0.30;;;9.10;99.90;;;;;;4979085;28;20522;-74
2024/03/18 05:29:40;;;;;;;0.45;0.40;;;9.10;99.90;;;;;;4967579;28;20046;-75
2024/03/18 05:32:08;;;;;;;1.35;0.30;;;9.00;99.90;;;;;;4993926;28;20125;-76
2024/03/18 05:34:34;;;;;;;0.32;0.30;;;9.00;99.90;;;;;;4979176;28;20054;-75
2024/03/18 05:37:01;;;;;;;0.43;0.30;;;9.00;1.00;;;;;;4960052;28;20497;-75
2024/03/18 05:39:27;;;;;;;0.35;0.20;;;9.00;1.00;;;;;;4984351;28;20489;-74
2024/03/18 05:41:54;;;;;;;0.47;0.32;;;9.00;54.20;;;;;;4986164;28;20065;-75
2024/03/18 05:44:20;;;;;;;0.20;0.20;;;9.00;99.90;;;;;;4961077;28;20073;-75
2024/03/18 05:46:46;;;;;;;0.88;0.43;;;9.00;99.90;;;;;;4950931;28;20747;-75
2024/03/18 05:49:12;;;;;;;0.52;0.32;;;9.00;99.90;;;;;;4967124;28;20050;-74
2024/03/18 05:51:38;;;;;;;0.50;0.30;;;9.00;99.90;;;;;;4973232;28;20058;-75
2024/03/18 05:54:04;;;;;;;0.40;0.30;;;9.00;99.90;;;;;;4962322;28;20053;-75
2024/03/18 05:56:30;;;;;;;1.00;0.30;;;9.10;1.00;;;;;;4974227;28;20053;-74
2024/03/18 05:58:57;;;;;;;0.65;0.60;;;9.10;1.00;;;;;;4943094;28;20077;-75
2024/03/18 06:01:23;;;;;;;0.40;0.40;;;9.20;1.00;;;;;;4950570;28;20049;-75
2024/03/18 06:03:48;;;;;;;0.80;0.40;;;9.10;1.00;;;;;;4961666;28;20092;-75
2024/03/18 06:06:14;;;;;;;0.85;0.50;;;9.20;99.90;;;;;;4956888;28;20053;-75
2024/03/18 06:08:40;;;;;;;1.33;0.63;;;9.10;1.00;;;;;;4940202;28;20520;-76
2024/03/18 06:11:06;;;;;;;0.50;0.40;;;9.20;99.90;;;;;;4959747;28;20050;-75
2024/03/18 06:13:32;;;;;;;0.43;0.40;;;9.10;99.90;;;;;;4955895;28;20100;-75
2024/03/18 06:15:58;;;;;;;0.52;0.50;;;9.10;99.90;;;;;;4963043;28;20441;-75
2024/03/18 06:18:24;;;;;;;0.65;0.40;;;9.00;99.90;;;;;;4961876;28;20581;-75
2024/03/18 06:20:52;;;;;;;0.57;0.40;;;9.00;99.90;;;;;;4987437;28;20086;-76
2024/03/18 06:23:22;;;;;;;0.50;0.30;;;9.00;99.90;;;;;;4949759;28;20108;-75
2024/03/18 06:25:57;;;;;;;0.32;0.32;;;9.00;99.90;;;;;;4964958;28;20062;-75
2024/03/18 06:28:30;;;;;;;0.32;0.30;;;9.00;99.90;;;;;;4980032;28;20042;-75
2024/03/18 06:30:56;;;;;;;0.40;0.30;;;9.10;99.90;;;;;;4947004;28;20058;-75
2024/03/18 06:33:23;;;;;;;0.32;0.32;;;9.10;99.90;;;;;;4962798;28;20057;-76
2024/03/18 06:35:49;;;;;;;0.63;0.55;;;9.20;1.00;;;;;;4982604;28;20540;-75
2024/03/18 06:38:15;;;;;;;0.65;0.45;;;9.20;1.00;;;;;;4964108;28;20211;-76
2024/03/18 06:40:41;;;;;;;0.60;0.43;;;9.30;99.90;;;;;;4981420;28;20058;-75
2024/03/18 06:43:08;;;;;;;0.40;0.40;;;9.30;99.90;;;;;;4964666;28;20452;-76
2024/03/18 06:45:34;;;;;;;0.50;0.40;;;9.40;99.90;;;;;;4961197;28;20054;-74
2024/03/18 06:48:02;;;;;;;0.52;0.30;;;9.50;34.40;;;;;;4964857;28;20088;-74
2024/03/18 06:50:29;;;;;;;0.25;0.20;;;9.50;99.90;;;;;;4999381;28;20073;-75
2024/03/18 06:52:55;;;;;;;0.73;0.40;;;9.50;47.60;;;;;;4995442;28;20061;-74
2024/03/18 06:55:22;;;;;;;0.55;0.52;;;9.50;1.00;;;;;;4960019;28;20043;-74
2024/03/18 06:57:47;;;;;;;0.63;0.50;;;9.60;99.90;;;;;;4988048;28;20053;-74
2024/03/18 07:00:14;;;;;;;0.60;0.30;;;9.70;99.90;;;;;;4964964;28;20837;-74
2024/03/18 07:02:40;;;;;;;0.38;0.30;;;9.70;33.80;;;;;;4991297;28;20065;-74
2024/03/18 07:05:07;;;;;;;1.10;0.60;;;9.70;1.00;;;;;;4970460;28;20050;-74
2024/03/18 07:07:32;;;;;;;0.82;0.52;;;9.80;1.00;;;;;;4982043;28;20057;-75
2024/03/18 07:09:58;;;;;;;1.05;0.38;;;9.80;99.90;;;;;;4995676;28;20046;-74
2024/03/18 07:12:24;;;;;;;0.85;0.40;;;9.80;99.90;;;;;;4980589;28;20049;-74
2024/03/18 07:14:50;;;;;;;0.50;0.40;;;9.80;99.90;;;;;;4996380;28;20077;-75
2024/03/18 07:17:16;;;;;;;0.93;0.50;;;9.80;99.90;;;;;;4972343;28;20058;-75
2024/03/18 07:19:42;;;;;;;1.08;0.40;;;9.80;99.90;;;;;;4961871;28;20057;-75
2024/03/18 07:22:09;;;;;;;1.60;0.63;;;9.80;99.90;;;;;;4962285;28;20058;-76
2024/03/18 07:24:35;;;;;;;1.35;1.13;;;9.80;99.90;;;;;;4961533;28;20708;-76
2024/03/18 07:27:02;;;;;;;0.88;0.60;;;9.80;99.90;;;;;;4978128;28;20448;-75
2024/03/18 07:29:28;;;;;;;0.45;0.32;;;9.70;99.90;;;;;;4963370;28;20054;-76
2024/03/18 07:31:56;;;;;;;0.70;0.52;;;9.70;99.90;;;;;;4962628;28;20109;-75
2024/03/18 07:34:25;;;;;;;0.88;0.52;;;9.70;99.90;;;;;;4991730;28;20058;-74
2024/03/18 07:36:52;;;;;;;0.82;0.63;;;9.60;99.90;;;;;;4997878;28;20061;-75
2024/03/18 07:39:19;;;;;;;0.50;0.40;;;9.60;1.00;;;;;;4981164;28;20058;-74
2024/03/18 07:41:44;;;;;;;0.90;0.40;;;9.60;1.00;;;;;;4997196;28;20069;-76
2024/03/18 07:44:10;;;;;;;0.80;0.30;;;9.60;1.00;;;;;;4980860;28;20513;-76
2024/03/18 07:46:36;;;;;;;0.40;0.35;;;9.60;1.00;;;;;;4997894;28;20053;-75
2024/03/18 07:49:02;;;;;;;0.80;0.50;;;9.60;1.00;;;;;;4997569;28;20100;-76
2024/03/18 07:51:28;;;;;;;0.73;0.50;;;9.60;1.00;;;;;;4981739;28;20064;-75
2024/03/18 07:53:55;;;;;;;0.45;0.25;;;9.70;10.30;;;;;;4979571;28;20088;-76
2024/03/18 07:56:22;;;;;;;0.30;0.30;;;9.80;41.30;;;;;;4965396;28;20405;-75
2024/03/18 07:58:48;;;;;;;0.63;0.35;;;9.80;1.00;;;;;;4949432;28;20054;-75
2024/03/18 08:01:14;;;;;;;0.35;0.30;;;9.90;1.00;;;;;;4965410;28;20081;-75
2024/03/18 08:03:40;;;;;;;0.80;0.25;;;10.00;1.00;;;;;;4964520;28;20054;-75
2024/03/18 08:06:09;;;;;;;0.30;0.30;;;10.10;1.00;;;;;;4980485;28;20061;-75
2024/03/18 08:08:35;;;;;;;0.30;0.30;;;10.10;1.00;;;;;;4948617;28;20062;-76
2024/03/18 08:11:01;;;;;;;0.30;0.30;;;10.20;99.90;;;;;;4980209;28;20076;-76
2024/03/18 08:13:27;;;;;;;0.65;0.40;;;10.30;99.90;;;;;;4980786;28;20443;-75
2024/03/18 08:15:53;;;;;;;0.75;0.35;;;10.40;99.90;;;;;;4980866;28;20089;-75
2024/03/18 08:18:18;;;;;;;0.55;0.40;;;10.50;99.90;;;;;;4964141;28;20127;-76
2024/03/18 08:20:44;;;;;;;0.45;0.32;;;10.50;99.90;;;;;;4981263;28;20049;-76
2024/03/18 08:23:10;;;;;;;0.38;0.38;;;10.60;99.90;;;;;;4970422;28;20062;-75
2024/03/18 08:25:36;;;;;;;0.32;0.32;;;10.70;99.90;;;;;;4945219;28;20576;-75
2024/03/18 08:28:02;;;;;;;0.85;0.30;;;10.90;94.20;;;;;;4928909;28;20054;-76
2024/03/18 08:30:28;;;;;;;1.73;0.65;;;11.00;1.00;;;;;;4945343;28;20422;-75
2024/03/18 08:32:54;;;;;;;2.88;0.55;;;11.10;99.90;;;;;;4945934;28;20058;-76
2024/03/18 08:35:20;;;;;;;1.27;0.50;;;11.20;99.90;;;;;;4981940;28;20058;-75
2024/03/18 08:37:46;;;;;;;1.65;0.60;;;11.30;99.90;;;;;;4979398;28;20646;-75
2024/03/18 08:40:13;;;;;;;0.52;0.43;;;11.40;99.90;;;;;;4963960;28;20058;-75
2024/03/18 08:42:40;;;;;;;0.93;0.43;;;11.50;99.90;;;;;;4963684;28;20062;-75
2024/03/18 08:45:08;;;;;;;1.52;0.50;;;11.60;99.90;;;;;;4964468;28;20111;-76
2024/03/18 08:47:34;;;;;;;0.80;0.30;;;11.70;99.90;;;;;;4965440;28;20488;-76
2024/03/18 08:50:00;;;;;;;1.20;0.70;;;11.80;99.90;;;;;;4964393;28;20141;-75
2024/03/18 08:52:25;;;;;;;0.68;0.30;;;11.90;99.90;;;;;;4963405;28;20057;-75
2024/03/18 08:54:51;;;;;;;0.77;0.45;;;12.10;99.90;;;;;;4962776;28;20062;-75
2024/03/18 08:57:18;;;;;;;0.95;0.45;;;12.20;99.90;;;;;;4979623;28;20053;-76
2024/03/18 08:59:44;;;;;;;0.32;0.32;;;12.30;99.90;;;;;;4948492;28;20073;-75
2024/03/18 09:02:10;;;;;;;0.98;0.50;;;12.40;99.90;;;;;;4964460;28;20054;-75
2024/03/18 09:04:36;;;;;;;1.08;0.40;;;12.50;99.90;;;;;;4979447;28;20148;-75
2024/03/18 09:07:02;;;;;;;0.28;0.28;;;12.60;99.90;;;;;;4962365;28;20133;-77
2024/03/18 09:09:28;;;;;;;0.20;0.20;;;12.70;99.90;;;;;;4978293;28;20046;-76
2024/03/18 09:11:54;;;;;;;1.00;0.50;;;12.70;99.90;;;;;;4979606;28;20062;-75
2024/03/18 09:14:20;;;;;;;0.65;0.28;;;12.90;99.90;;;;;;4990068;28;20065;-75
2024/03/18 09:16:45;;;;;;;0.45;0.32;;;12.90;99.90;;;;;;4979067;28;20050;-75
2024/03/18 09:19:11;;;;;;;0.40;0.30;;;12.90;99.90;;;;;;4979329;28;20520;-75
2024/03/18 09:21:37;;;;;;;0.77;0.40;;;13.00;99.90;;;;;;4946678;28;20853;-76
2024/03/18 09:24:03;;;;;;;0.55;0.43;;;13.00;99.90;;;;;;4959182;28;20483;-75
2024/03/18 09:26:29;;;;;;;0.30;0.30;;;13.10;99.90;;;;;;4958221;28;20804;-75
2024/03/18 09:28:55;;;;;;;1.17;0.47;;;13.20;99.90;;;;;;4945288;28;20058;-76
2024/03/18 09:31:21;;;;;;;0.60;0.38;;;13.20;99.90;;;;;;4978555;28;20504;-75
2024/03/18 09:33:47;;;;;;;1.05;0.60;;;13.30;99.90;;;;;;4979462;28;20061;-75
2024/03/18 09:36:13;;;;;;;0.45;0.35;;;13.30;99.90;;;;;;4979951;28;20065;-75
2024/03/18 09:38:39;;;;;;;0.50;0.40;;;13.50;99.90;;;;;;4962920;28;20057;-76
2024/03/18 09:41:06;;;;;;;0.40;0.38;;;13.50;99.90;;;;;;4946291;28;20436;-76
2024/03/18 09:43:36;;;;;;;1.40;0.47;;;13.60;99.90;;;;;;4963986;28;20588;-75
2024/03/18 09:46:03;;;;;;;0.73;0.40;;;13.60;99.90;;;;;;4965104;28;20103;-75
2024/03/18 09:48:33;;;;;;;0.80;0.38;;;13.60;99.60;;;;;;4948149;28;20126;-76
2024/03/18 09:50:59;;;;;;;0.35;0.30;;;13.60;94.50;;;;;;4995826;28;20058;-75
2024/03/18 09:53:27;;;;;;;0.52;0.30;;;13.60;91.30;;;;;;4978134;28;20081;-75
2024/03/18 09:55:53;;;;;;;0.52;0.52;;;13.70;86.10;;;;;;4963290;28;20046;-75
2024/03/18 09:58:19;;;;;;;0.90;0.30;;;13.80;84.50;;;;;;4979802;28;20065;-75
2024/03/18 10:00:45;;;;;;;0.40;0.30;;;13.80;69.70;;;;;;4947655;28;20478;-75
2024/03/18 10:03:18;;;;;;;0.20;0.17;;;13.90;72.60;;;;;;4979366;28;20103;-75
2024/03/18 10:05:45;;;;;;;0.63;0.20;;;14.00;69.90;;;;;;4979459;28;20054;-75
2024/03/18 10:08:15;;;;;;;0.13;0.13;;;14.00;74.00;;;;;;4964560;28;20065;-76
2024/03/18 10:10:44;;;;;;;0.25;0.22;;;14.10;70.30;;;;;;4951143;28;20050;-75
2024/03/18 10:13:10;;;;;;;0.30;0.30;;;14.10;65.40;;;;;;4967751;28;20064;-75
2024/03/18 10:15:38;;;;;;;0.20;0.20;;;14.30;73.90;;;;;;4967122;28;20470;-75
2024/03/18 10:18:13;;;;;;;0.20;0.20;;;14.40;69.40;;;;;;4998960;28;20061;-76
2024/03/18 10:20:39;;;;;;;0.38;0.30;;;14.60;55.40;;;;;;4951667;28;20073;-75
2024/03/18 10:23:08;;;;;;;0.82;0.40;;;14.70;39.90;;;;;;4946345;28;20054;-75
2024/03/18 10:25:34;;;;;;;0.90;0.43;;;14.70;42.20;;;;;;4949287;28;20076;-76
2024/03/18 10:28:05;;;;;;;0.30;0.30;;;14.80;44.60;;;;;;4933376;28;20078;-76
2024/03/18 10:30:31;;;;;;;0.30;0.30;;;14.80;45.80;;;;;;4950737;28;20584;-76
2024/03/18 10:32:58;;;;;;;0.30;0.30;;;14.90;36.50;;;;;;4965670;28;20062;-76
2024/03/18 10:35:31;;;;;;;0.47;0.32;;;15.00;34.40;;;;;;4934318;28;20375;-75
2024/03/18 10:37:58;;;;;;;0.22;0.20;;;15.00;38.20;;;;;;4935599;28;20552;-76
2024/03/18 10:40:38;;;;;;;0.50;0.20;;;15.00;35.40;;;;;;4965613;28;20054;-75
2024/03/18 10:43:06;;;;;;;0.20;0.20;;;14.80;31.20;;;;;;4949983;28;20058;-75
2024/03/18 10:45:32;;;;;;;0.28;0.28;;;14.80;32.10;;;;;;4950869;28;20054;-75
2024/03/18 10:48:05;;;;;;;0.20;0.20;;;14.70;28.90;;;;;;4949925;28;20057;-75
2024/03/18 10:50:31;;;;;;;;;;;14.60;31.30;;;;;;4936360;28;20068;-75
2024/03/18 10:52:58;;;;;;;0.75;0.57;;;14.50;34.00;;;;;;4948203;28;19926;-76
2024/03/18 10:55:24;;;;;;;0.60;0.50;;;14.50;37.30;;;;;;4964952;28;20050;-75
2024/03/18 10:57:51;;;;;;;0.75;0.50;;;14.60;36.10;;;;;;4950010;28;20051;-76
2024/03/18 11:00:18;;;;;;;0.75;0.52;;;14.70;33.60;;;;;;4934569;28;20402;-75
2024/03/18 11:02:56;;;;;;;0.75;0.50;;;14.80;30.00;;;;;;4965813;28;20054;-75
2024/03/18 11:05:22;;;;;;;1.00;0.60;;;14.90;26.90;;;;;;4950035;28;20050;-76
2024/03/18 11:07:48;;;;;;;0.77;0.57;;;15.00;26.10;;;;;;4981154;28;20407;-75
2024/03/18 11:10:14;;;;;;;1.50;0.90;;;15.30;24.50;;;;;;4980971;28;20112;-76
2024/03/18 11:12:42;;;;;;;1.27;0.65;;;15.30;18.10;;;;;;4966624;28;20134;-76
2024/03/18 11:15:08;;;;;;;0.75;0.60;;;15.40;17.20;;;;;;4988904;28;20057;-76
2024/03/18 11:18:04;;;;;;;2.05;0.98;;;15.50;18.20;;;;;;4956633;28;20437;-76
2024/03/18 11:20:30;;;;;;;0.40;0.40;;;15.60;14.90;;;;;;4986086;28;20134;-76
2024/03/18 11:22:59;;;;;;;0.70;0.60;;;15.50;9.80;;;;;;4986603;28;20058;-76
2024/03/18 11:25:29;;;;;;;1.45;0.55;;;15.40;11.20;;;;;;4985362;28;20061;-76
2024/03/18 11:27:56;;;;;;;1.50;0.82;;;15.40;13.10;;;;;;4968638;28;20108;-76
2024/03/18 11:30:25;;;;;;;1.17;0.73;;;15.30;9.80;;;;;;4972427;28;20080;-76
2024/03/18 11:32:51;;;;;;;0.50;0.50;;;15.10;12.40;;;;;;4986966;28;20100;-76
2024/03/18 11:35:17;;;;;;;0.85;0.50;;;15.00;15.30;;;;;;4968731;28;20058;-76
2024/03/18 11:37:46;;;;;;;0.40;0.40;;;15.00;19.50;;;;;;4951443;28;20058;-75
2024/03/18 11:40:15;;;;;;;0.65;0.38;;;15.20;26.00;;;;;;4951725;28;20422;-76
2024/03/18 11:42:42;;;;;;;0.50;0.40;;;15.40;25.90;;;;;;4968040;28;20051;-76
2024/03/18 11:45:19;;;;;;;0.38;0.38;;;15.70;24.00;;;;;;4936423;28;20051;-76
2024/03/18 11:47:46;;;;;;;0.95;0.60;;;16.00;14.60;;;;;;4936730;28;20062;-76
2024/03/18 11:50:12;;;;;;;1.20;0.40;;;16.00;8.40;;;;;;4968801;28;20062;-76
2024/03/18 11:52:40;;;;;;;0.52;0.40;;;15.80;7.40;;;;;;4951748;28;20050;-75
2024/03/18 11:55:10;;;;;;;0.50;0.40;;;15.80;9.10;;;;;;4953473;28;20829;-76
2024/03/18 11:57:37;;;;;;;0.50;0.40;;;15.90;7.60;;;;;;4987512;28;20076;-76
2024/03/18 12:00:11;;;;;;;1.10;0.50;;;16.10;8.60;;;;;;4988063;28;20054;-76
2024/03/18 12:02:41;;;;;;;0.65;0.40;;;16.20;5.40;;;;;;4973392;28;20065;-76
2024/03/18 12:05:08;;;;;;;0.70;0.43;;;16.60;6.50;;;;;;4954349;28;20076;-76
2024/03/18 12:07:34;;;;;;;0.98;0.40;;;17.10;3.40;;;;;;4984203;28;20057;-76
2024/03/18 12:10:01;;;;;;;0.20;0.20;;;17.00;1.00;;;;;;4950171;28;20079;-76
2024/03/18 12:12:27;;;;;;;0.70;0.40;;;16.90;1.00;;;;;;4952310;28;20053;-76
2024/03/18 12:14:54;;;;;;;0.50;0.40;;;16.90;1.00;;;;;;4951701;28;20050;-76
2024/03/18 12:17:20;;;;;;;0.40;0.40;;;16.90;1.00;;;;;;4949708;28;20087;-76
2024/03/18 12:20:20;;;;;;;0.22;0.20;;;17.10;1.00;;;;;;4983329;28;20494;-76
2024/03/18 12:22:53;;;;;;;0.45;0.30;;;17.30;1.00;;;;;;4955352;28;20054;-76
2024/03/18 12:30:59;;;;;;;0.82;0.35;;;18.10;1.00;;;;;;4984162;28;20834;-76
2024/03/18 12:33:29;;;;;;;0.32;0.32;;;18.10;1.00;;;;;;4966298;28;20076;-76
2024/03/18 12:35:56;;;;;;;0.43;0.28;;;18.00;1.00;;;;;;4955300;28;20050;-73
2024/03/18 12:38:22;;;;;;;0.10;0.10;;;17.80;1.00;;;;;;4980813;28;20053;-74
2024/03/18 12:40:48;;;;;;;0.20;0.20;;;17.50;1.00;;;;;;4966371;28;20516;-74
2024/03/18 12:43:14;;;;;;;1.10;0.40;;;17.20;1.00;;;;;;4966299;28;20102;-73
2024/03/18 12:45:40;;;;;;;1.67;0.30;;;17.30;1.00;;;;;;4980326;28;20433;-73
2024/03/18 12:48:07;;;;;;;0.20;0.20;;;17.40;1.00;;;;;;5002274;28;20050;-74
2024/03/18 12:50:33;;;;;;;0.52;0.20;;;17.50;1.00;;;;;;4981350;28;20410;-73
2024/03/18 12:53:01;;;;;;;0.22;0.22;;;17.50;1.00;;;;;;4977759;28;20104;-73
2024/03/18 12:55:28;;;;;;;0.73;0.30;;;17.40;1.00;;;;;;4976065;28;20046;-73
2024/03/18 12:57:54;;;;;;;0.35;0.20;;;17.20;1.00;;;;;;4963766;28;20516;-73
2024/03/18 13:00:20;;;;;;;0.38;0.30;;;17.00;1.00;;;;;;4964089;28;20555;-73